sensor_id;sensor_type;location;lat;lon;timestamp;temperature;humidity
1958;DHT22;979;51.076;13.748;2022-12-16T00:01:17;-0.30;61.20
1958;DHT22;979;51.076;13.748;2022-12-16T00:03:54;-0.20;61.30
1958;DHT22;979;51.076;13.748;2022-12-16T00:06:40;-0.40;61.20
1958;DHT22;979;51.076;13.748;2022-12-16T00:09:09;-0.40;61.30
1958;DHT22;979;51.076;13.748;2022-12-16T00:11:38;-0.20;61.50
1958;DHT22;979;51.076;13.748;2022-12-16T00:14:09;-0.50;61.30
1958;DHT22;979;51.076;13.748;2022-12-16T00:17:07;-0.30;61.50
1958;DHT22;979;51.076;13.748;2022-12-16T00:20:02;-0.30;61.50
1958;DHT22;979;51.076;13.748;2022-12-16T00:40:46;-0.20;61.30
1958;DHT22;979;51.076;13.748;2022-12-16T00:44:02;-0.20;61.50
1958;DHT22;979;51.076;13.748;2022-12-16T00:46:57;-0.10;61.50
1958;DHT22;979;51.076;13.748;2022-12-16T00:49:25;-0.20;61.50
1958;DHT22;979;51.076;13.748;2022-12-16T00:51:54;-0.20;61.50
1958;DHT22;979;51.076;13.748;2022-12-16T00:54:22;0.00;61.60
1958;DHT22;979;51.076;13.748;2022-12-16T00:56:56;0.00;61.80
1958;DHT22;979;51.076;13.748;2022-12-16T00:59:25;-0.10;61.40
1958;DHT22;979;51.076;13.748;2022-12-16T01:02:08;-0.10;61.60
1958;DHT22;979;51.076;13.748;2022-12-16T01:04:38;-0.10;61.50
1958;DHT22;979;51.076;13.748;2022-12-16T01:07:07;-0.10;62.30
1958;DHT22;979;51.076;13.748;2022-12-16T01:09:36;-0.10;61.50
1958;DHT22;979;51.076;13.748;2022-12-16T01:12:06;-0.10;61.50
1958;DHT22;979;51.076;13.748;2022-12-16T01:14:34;0.00;61.60
1958;DHT22;979;51.076;13.748;2022-12-16T01:17:03;0.00;61.70
1958;DHT22;979;51.076;13.748;2022-12-16T01:19:32;0.00;61.60
1958;DHT22;979;51.076;13.748;2022-12-16T01:22:00;0.00;61.60
1958;DHT22;979;51.076;13.748;2022-12-16T01:24:29;0.00;61.60
1958;DHT22;979;51.076;13.748;2022-12-16T01:27:15;0.10;61.70
1958;DHT22;979;51.076;13.748;2022-12-16T01:29:44;0.20;61.70
1958;DHT22;979;51.076;13.748;2022-12-16T01:32:12;0.20;61.90
1958;DHT22;979;51.076;13.748;2022-12-16T01:34:47;0.30;61.80
1958;DHT22;979;51.076;13.748;2022-12-16T01:37:44;0.10;61.60
1958;DHT22;979;51.076;13.748;2022-12-16T01:40:16;0.10;61.80
1958;DHT22;979;51.076;13.748;2022-12-16T01:43:07;-0.10;61.40
1958;DHT22;979;51.076;13.748;2022-12-16T01:49:53;-0.20;61.20
1958;DHT22;979;51.076;13.748;2022-12-16T01:52:30;0.00;61.80
1958;DHT22;979;51.076;13.748;2022-12-16T01:55:02;-0.20;61.70
1958;DHT22;979;51.076;13.748;2022-12-16T01:57:37;-0.20;61.90
1958;DHT22;979;51.076;13.748;2022-12-16T02:00:10;-0.20;62.00
1958;DHT22;979;51.076;13.748;2022-12-16T02:02:41;-0.10;62.00
1958;DHT22;979;51.076;13.748;2022-12-16T02:05:11;-0.20;61.90
1958;DHT22;979;51.076;13.748;2022-12-16T02:08:00;0.10;62.20
1958;DHT22;979;51.076;13.748;2022-12-16T02:10:37;-0.20;61.90
1958;DHT22;979;51.076;13.748;2022-12-16T02:13:17;0.20;62.10
1958;DHT22;979;51.076;13.748;2022-12-16T02:15:52;0.20;62.00
1958;DHT22;979;51.076;13.748;2022-12-16T02:18:33;0.10;61.90
1958;DHT22;979;51.076;13.748;2022-12-16T02:21:22;0.10;61.80
1958;DHT22;979;51.076;13.748;2022-12-16T02:30:32;0.20;61.90
1958;DHT22;979;51.076;13.748;2022-12-16T02:33:13;0.20;61.90
1958;DHT22;979;51.076;13.748;2022-12-16T02:35:50;0.40;62.10
1958;DHT22;979;51.076;13.748;2022-12-16T02:38:25;0.30;62.10
1958;DHT22;979;51.076;13.748;2022-12-16T02:40:59;0.30;62.00
1958;DHT22;979;51.076;13.748;2022-12-16T02:43:43;0.40;62.10
1958;DHT22;979;51.076;13.748;2022-12-16T02:46:16;0.20;61.80
1958;DHT22;979;51.076;13.748;2022-12-16T02:48:46;0.20;61.90
1958;DHT22;979;51.076;13.748;2022-12-16T02:51:15;0.30;62.30
1958;DHT22;979;51.076;13.748;2022-12-16T02:53:45;0.10;62.00
1958;DHT22;979;51.076;13.748;2022-12-16T02:56:25;0.10;62.10
1958;DHT22;979;51.076;13.748;2022-12-16T02:59:06;-0.10;61.90
1958;DHT22;979;51.076;13.748;2022-12-16T03:01:42;0.00;62.10
1958;DHT22;979;51.076;13.748;2022-12-16T03:04:18;0.00;62.30
1958;DHT22;979;51.076;13.748;2022-12-16T03:06:49;0.00;62.20
1958;DHT22;979;51.076;13.748;2022-12-16T03:09:23;0.10;62.30
1958;DHT22;979;51.076;13.748;2022-12-16T03:11:53;0.10;62.30
1958;DHT22;979;51.076;13.748;2022-12-16T03:14:26;-0.10;62.10
1958;DHT22;979;51.076;13.748;2022-12-16T03:16:58;0.00;62.20
1958;DHT22;979;51.076;13.748;2022-12-16T03:19:28;-0.30;62.00
1958;DHT22;979;51.076;13.748;2022-12-16T03:22:01;-0.40;61.90
1958;DHT22;979;51.076;13.748;2022-12-16T03:24:31;-0.30;62.10
1958;DHT22;979;51.076;13.748;2022-12-16T03:27:05;-0.30;62.20
1958;DHT22;979;51.076;13.748;2022-12-16T03:29:40;-0.40;62.20
1958;DHT22;979;51.076;13.748;2022-12-16T03:32:14;-0.40;62.30
1958;DHT22;979;51.076;13.748;2022-12-16T03:34:49;-0.20;62.60
1958;DHT22;979;51.076;13.748;2022-12-16T03:37:20;-0.20;62.60
1958;DHT22;979;51.076;13.748;2022-12-16T03:39:51;-0.20;62.50
1958;DHT22;979;51.076;13.748;2022-12-16T03:42:23;-0.30;62.50
1958;DHT22;979;51.076;13.748;2022-12-16T03:44:52;-0.30;62.50
1958;DHT22;979;51.076;13.748;2022-12-16T03:47:24;-0.10;62.70
1958;DHT22;979;51.076;13.748;2022-12-16T03:49:53;-0.30;62.50
1958;DHT22;979;51.076;13.748;2022-12-16T03:52:22;-0.10;62.60
1958;DHT22;979;51.076;13.748;2022-12-16T03:54:50;-0.20;62.50
1958;DHT22;979;51.076;13.748;2022-12-16T03:57:19;-0.20;62.60
1958;DHT22;979;51.076;13.748;2022-12-16T03:59:48;-0.20;62.60
1958;DHT22;979;51.076;13.748;2022-12-16T04:02:16;-0.30;62.50
1958;DHT22;979;51.076;13.748;2022-12-16T04:04:47;-0.30;62.50
1958;DHT22;979;51.076;13.748;2022-12-16T04:07:15;-0.20;62.50
1958;DHT22;979;51.076;13.748;2022-12-16T04:09:51;-0.10;62.70
1958;DHT22;979;51.076;13.748;2022-12-16T04:12:20;-0.20;62.50
1958;DHT22;979;51.076;13.748;2022-12-16T04:15:07;0.00;62.70
1958;DHT22;979;51.076;13.748;2022-12-16T04:17:52;-0.20;62.40
1958;DHT22;979;51.076;13.748;2022-12-16T04:20:43;-0.20;62.40
1958;DHT22;979;51.076;13.748;2022-12-16T04:23:30;-0.20;62.40
1958;DHT22;979;51.076;13.748;2022-12-16T04:26:17;-0.30;62.30
1958;DHT22;979;51.076;13.748;2022-12-16T04:28:46;-0.10;62.60
1958;DHT22;979;51.076;13.748;2022-12-16T04:31:15;-0.30;62.50
1958;DHT22;979;51.076;13.748;2022-12-16T04:33:44;-0.30;62.30
1958;DHT22;979;51.076;13.748;2022-12-16T04:36:46;-0.30;62.40
1958;DHT22;979;51.076;13.748;2022-12-16T04:39:32;-0.20;62.40
1958;DHT22;979;51.076;13.748;2022-12-16T04:42:18;-0.20;63.20
1958;DHT22;979;51.076;13.748;2022-12-16T04:45:04;0.00;62.50
1958;DHT22;979;51.076;13.748;2022-12-16T04:47:52;-0.10;62.50
1958;DHT22;979;51.076;13.748;2022-12-16T04:50:38;-0.20;62.30
1958;DHT22;979;51.076;13.748;2022-12-16T04:53:25;-0.10;62.30
1958;DHT22;979;51.076;13.748;2022-12-16T04:56:11;-0.10;62.40
1958;DHT22;979;51.076;13.748;2022-12-16T04:58:53;-0.10;62.30
1958;DHT22;979;51.076;13.748;2022-12-16T05:01:39;-0.10;62.20
1958;DHT22;979;51.076;13.748;2022-12-16T05:04:26;-0.20;62.10
1958;DHT22;979;51.076;13.748;2022-12-16T05:07:12;-0.10;62.30
1958;DHT22;979;51.076;13.748;2022-12-16T05:10:07;-0.10;62.40
1958;DHT22;979;51.076;13.748;2022-12-16T05:12:53;-0.20;62.20
1958;DHT22;979;51.076;13.748;2022-12-16T05:15:39;-0.10;62.40
1958;DHT22;979;51.076;13.748;2022-12-16T05:18:25;0.10;62.50
1958;DHT22;979;51.076;13.748;2022-12-16T05:21:11;0.10;62.50
1958;DHT22;979;51.076;13.748;2022-12-16T05:23:58;-0.10;62.10
1958;DHT22;979;51.076;13.748;2022-12-16T05:26:53;-0.20;62.10
1958;DHT22;979;51.076;13.748;2022-12-16T05:29:39;-0.10;62.30
1958;DHT22;979;51.076;13.748;2022-12-16T05:32:25;-0.20;62.30
1958;DHT22;979;51.076;13.748;2022-12-16T05:35:15;0.10;62.50
1958;DHT22;979;51.076;13.748;2022-12-16T05:38:23;-0.10;62.10
1958;DHT22;979;51.076;13.748;2022-12-16T05:41:09;-0.10;62.10
1958;DHT22;979;51.076;13.748;2022-12-16T05:43:57;0.00;62.10
1958;DHT22;979;51.076;13.748;2022-12-16T05:46:45;-0.20;61.90
1958;DHT22;979;51.076;13.748;2022-12-16T05:49:47;-0.10;62.10
1958;DHT22;979;51.076;13.748;2022-12-16T05:52:48;-0.40;61.70
1958;DHT22;979;51.076;13.748;2022-12-16T05:56:01;-0.30;62.00
1958;DHT22;979;51.076;13.748;2022-12-16T05:58:50;-0.40;62.20
1958;DHT22;979;51.076;13.748;2022-12-16T06:01:38;-0.30;62.40
1958;DHT22;979;51.076;13.748;2022-12-16T06:04:24;-0.40;62.30
1958;DHT22;979;51.076;13.748;2022-12-16T06:07:11;-0.30;62.40
1958;DHT22;979;51.076;13.748;2022-12-16T06:09:57;-0.20;62.50
1958;DHT22;979;51.076;13.748;2022-12-16T06:12:53;0.00;62.40
1958;DHT22;979;51.076;13.748;2022-12-16T06:15:39;0.00;62.50
1958;DHT22;979;51.076;13.748;2022-12-16T06:18:35;0.10;62.60
1958;DHT22;979;51.076;13.748;2022-12-16T06:21:21;-0.20;62.10
1958;DHT22;979;51.076;13.748;2022-12-16T06:24:08;0.00;62.20
1958;DHT22;979;51.076;13.748;2022-12-16T06:27:11;0.10;62.30
1958;DHT22;979;51.076;13.748;2022-12-16T06:29:57;0.20;62.20
1958;DHT22;979;51.076;13.748;2022-12-16T06:32:43;0.30;62.30
1958;DHT22;979;51.076;13.748;2022-12-16T06:35:30;0.10;62.00
1958;DHT22;979;51.076;13.748;2022-12-16T06:38:26;0.10;61.90
1958;DHT22;979;51.076;13.748;2022-12-16T06:41:32;0.30;62.20
1958;DHT22;979;51.076;13.748;2022-12-16T06:47:00;0.20;62.00
1958;DHT22;979;51.076;13.748;2022-12-16T06:49:53;0.20;62.20
1958;DHT22;979;51.076;13.748;2022-12-16T06:52:42;0.30;62.10
1958;DHT22;979;51.076;13.748;2022-12-16T06:55:28;0.20;62.20
1958;DHT22;979;51.076;13.748;2022-12-16T06:58:18;0.30;62.30
1958;DHT22;979;51.076;13.748;2022-12-16T07:01:05;0.30;62.20
1958;DHT22;979;51.076;13.748;2022-12-16T07:03:53;0.50;62.30
1958;DHT22;979;51.076;13.748;2022-12-16T07:06:42;0.40;62.20
1958;DHT22;979;51.076;13.748;2022-12-16T07:09:30;0.40;62.30
1958;DHT22;979;51.076;13.748;2022-12-16T07:12:16;0.40;62.20
1958;DHT22;979;51.076;13.748;2022-12-16T07:15:03;0.50;62.60
1958;DHT22;979;51.076;13.748;2022-12-16T07:17:49;0.60;62.60
1958;DHT22;979;51.076;13.748;2022-12-16T07:20:36;0.60;62.50
1958;DHT22;979;51.076;13.748;2022-12-16T07:23:23;0.70;62.50
1958;DHT22;979;51.076;13.748;2022-12-16T07:26:11;0.70;62.40
1958;DHT22;979;51.076;13.748;2022-12-16T07:28:57;0.80;62.50
1958;DHT22;979;51.076;13.748;2022-12-16T07:31:42;0.80;62.40
1958;DHT22;979;51.076;13.748;2022-12-16T07:34:27;0.80;62.40
1958;DHT22;979;51.076;13.748;2022-12-16T07:37:18;0.70;62.20
1958;DHT22;979;51.076;13.748;2022-12-16T07:40:05;0.80;62.40
1958;DHT22;979;51.076;13.748;2022-12-16T07:42:52;0.90;62.40
1958;DHT22;979;51.076;13.748;2022-12-16T07:45:37;0.90;62.50
1958;DHT22;979;51.076;13.748;2022-12-16T07:48:23;1.00;62.50
1958;DHT22;979;51.076;13.748;2022-12-16T07:51:11;1.00;62.50
1958;DHT22;979;51.076;13.748;2022-12-16T07:54:11;1.20;62.80
1958;DHT22;979;51.076;13.748;2022-12-16T07:57:10;1.10;62.60
1958;DHT22;979;51.076;13.748;2022-12-16T09:33:05;2.20;62.70
1958;DHT22;979;51.076;13.748;2022-12-16T09:36:06;2.20;63.30
1958;DHT22;979;51.076;13.748;2022-12-16T09:39:05;2.10;63.60
1958;DHT22;979;51.076;13.748;2022-12-16T09:42:17;2.30;63.10
1958;DHT22;979;51.076;13.748;2022-12-16T09:45:30;2.60;63.10
1958;DHT22;979;51.076;13.748;2022-12-16T10:21:10;3.00;61.50
1958;DHT22;979;51.076;13.748;2022-12-16T10:24:05;3.00;61.30
1958;DHT22;979;51.076;13.748;2022-12-16T10:26:55;3.10;61.60
1958;DHT22;979;51.076;13.748;2022-12-16T10:29:43;3.00;61.50
1958;DHT22;979;51.076;13.748;2022-12-16T10:32:33;3.10;61.80
1958;DHT22;979;51.076;13.748;2022-12-16T10:35:26;3.10;61.50
1958;DHT22;979;51.076;13.748;2022-12-16T10:38:20;3.10;61.30
1958;DHT22;979;51.076;13.748;2022-12-16T10:41:07;3.10;61.10
1958;DHT22;979;51.076;13.748;2022-12-16T10:43:54;3.00;60.90
1958;DHT22;979;51.076;13.748;2022-12-16T10:46:45;2.80;60.70
1958;DHT22;979;51.076;13.748;2022-12-16T10:49:31;3.00;61.10
1958;DHT22;979;51.076;13.748;2022-12-16T10:52:21;3.10;61.40
1958;DHT22;979;51.076;13.748;2022-12-16T10:55:18;3.20;61.40
1958;DHT22;979;51.076;13.748;2022-12-16T10:58:15;3.10;61.20
1958;DHT22;979;51.076;13.748;2022-12-16T11:01:20;3.10;61.20
1958;DHT22;979;51.076;13.748;2022-12-16T11:04:31;3.10;60.90
1958;DHT22;979;51.076;13.748;2022-12-16T11:07:33;3.00;60.70
1958;DHT22;979;51.076;13.748;2022-12-16T11:10:33;3.10;60.90
1958;DHT22;979;51.076;13.748;2022-12-16T11:13:25;2.90;60.50
1958;DHT22;979;51.076;13.748;2022-12-16T11:16:14;2.90;60.90
1958;DHT22;979;51.076;13.748;2022-12-16T11:19:00;2.90;60.90
1958;DHT22;979;51.076;13.748;2022-12-16T11:21:46;3.00;61.10
1958;DHT22;979;51.076;13.748;2022-12-16T11:24:33;2.80;60.90
1958;DHT22;979;51.076;13.748;2022-12-16T11:27:24;2.80;61.10
1958;DHT22;979;51.076;13.748;2022-12-16T11:30:19;2.90;61.30
1958;DHT22;979;51.076;13.748;2022-12-16T11:33:15;3.00;61.10
1958;DHT22;979;51.076;13.748;2022-12-16T11:36:09;3.00;60.70
1958;DHT22;979;51.076;13.748;2022-12-16T11:38:55;2.60;60.10
1958;DHT22;979;51.076;13.748;2022-12-16T11:41:44;2.50;60.30
1958;DHT22;979;51.076;13.748;2022-12-16T11:44:35;2.40;60.30
1958;DHT22;979;51.076;13.748;2022-12-16T11:47:33;2.40;60.50
1958;DHT22;979;51.076;13.748;2022-12-16T11:50:22;2.30;60.40
1958;DHT22;979;51.076;13.748;2022-12-16T11:53:23;2.20;60.50
1958;DHT22;979;51.076;13.748;2022-12-16T11:56:16;2.10;60.10
1958;DHT22;979;51.076;13.748;2022-12-16T11:59:09;2.10;60.20
1958;DHT22;979;51.076;13.748;2022-12-16T12:01:59;2.10;60.40
1958;DHT22;979;51.076;13.748;2022-12-16T12:04:51;2.20;60.50
1958;DHT22;979;51.076;13.748;2022-12-16T12:07:42;2.30;60.70
1958;DHT22;979;51.076;13.748;2022-12-16T12:10:49;2.00;60.10
1958;DHT22;979;51.076;13.748;2022-12-16T12:13:47;2.00;60.10
1958;DHT22;979;51.076;13.748;2022-12-16T12:16:55;2.10;60.30
1958;DHT22;979;51.076;13.748;2022-12-16T12:20:23;1.90;60.10
1958;DHT22;979;51.076;13.748;2022-12-16T12:23:20;1.80;60.60
1958;DHT22;979;51.076;13.748;2022-12-16T12:26:24;1.90;60.10
1958;DHT22;979;51.076;13.748;2022-12-16T12:29:18;1.60;59.80
1958;DHT22;979;51.076;13.748;2022-12-16T12:32:21;1.70;59.90
1958;DHT22;979;51.076;13.748;2022-12-16T12:35:23;1.40;59.60
1958;DHT22;979;51.076;13.748;2022-12-16T12:38:19;1.40;59.70
1958;DHT22;979;51.076;13.748;2022-12-16T12:41:15;1.10;59.60
1958;DHT22;979;51.076;13.748;2022-12-16T12:44:10;1.00;59.80
1958;DHT22;979;51.076;13.748;2022-12-16T12:47:22;0.90;59.90
1958;DHT22;979;51.076;13.748;2022-12-16T12:50:20;0.80;59.90
1958;DHT22;979;51.076;13.748;2022-12-16T12:53:19;0.90;60.00
1958;DHT22;979;51.076;13.748;2022-12-16T12:56:19;0.80;59.70
1958;DHT22;979;51.076;13.748;2022-12-16T12:59:16;0.70;59.70
1958;DHT22;979;51.076;13.748;2022-12-16T13:02:26;0.70;59.90
1958;DHT22;979;51.076;13.748;2022-12-16T14:31:50;-0.70;59.50
1958;DHT22;979;51.076;13.748;2022-12-16T14:34:39;-0.70;59.70
1958;DHT22;979;51.076;13.748;2022-12-16T14:37:38;-0.50;59.90
1958;DHT22;979;51.076;13.748;2022-12-16T14:40:39;-0.80;59.70
1958;DHT22;979;51.076;13.748;2022-12-16T14:44:02;-0.60;59.70
1958;DHT22;979;51.076;13.748;2022-12-16T15:15:47;-0.90;59.90
1958;DHT22;979;51.076;13.748;2022-12-16T15:19:03;-1.00;60.10
1958;DHT22;979;51.076;13.748;2022-12-16T15:22:04;-1.00;60.00
1958;DHT22;979;51.076;13.748;2022-12-16T15:25:19;-0.90;59.90
1958;DHT22;979;51.076;13.748;2022-12-16T15:35:28;-1.20;59.80
1958;DHT22;979;51.076;13.748;2022-12-16T15:38:27;-1.10;59.90
1958;DHT22;979;51.076;13.748;2022-12-16T15:41:45;-1.20;59.90
1958;DHT22;979;51.076;13.748;2022-12-16T15:44:54;-1.10;60.20
1958;DHT22;979;51.076;13.748;2022-12-16T15:47:57;-0.90;60.30
1958;DHT22;979;51.076;13.748;2022-12-16T18:59:16;-0.70;61.70
1958;DHT22;979;51.076;13.748;2022-12-16T19:02:04;-0.70;61.90
1958;DHT22;979;51.076;13.748;2022-12-16T19:04:59;-0.80;61.90
1958;DHT22;979;51.076;13.748;2022-12-16T19:57:05;-0.40;61.60
1958;DHT22;979;51.076;13.748;2022-12-16T19:59:58;-0.40;61.70
1958;DHT22;979;51.076;13.748;2022-12-16T20:03:10;-0.50;61.90
1958;DHT22;979;51.076;13.748;2022-12-16T20:06:19;-0.50;61.80
1958;DHT22;979;51.076;13.748;2022-12-16T20:09:16;-0.30;62.10
1958;DHT22;979;51.076;13.748;2022-12-16T20:12:19;-0.60;61.90
1958;DHT22;979;51.076;13.748;2022-12-16T20:15:11;-0.40;62.00
1958;DHT22;979;51.076;13.748;2022-12-16T20:18:22;-0.40;62.10
1958;DHT22;979;51.076;13.748;2022-12-16T20:21:25;-0.30;62.10
1958;DHT22;979;51.076;13.748;2022-12-16T20:24:25;-0.40;61.80
1958;DHT22;979;51.076;13.748;2022-12-16T20:27:11;-0.40;61.90
1958;DHT22;979;51.076;13.748;2022-12-16T20:30:01;-0.40;62.10
1958;DHT22;979;51.076;13.748;2022-12-16T20:32:54;-0.40;61.90
1958;DHT22;979;51.076;13.748;2022-12-16T20:35:55;-0.30;62.10
1958;DHT22;979;51.076;13.748;2022-12-16T20:38:51;-0.50;61.70
1958;DHT22;979;51.076;13.748;2022-12-16T20:41:46;-0.50;61.90
1958;DHT22;979;51.076;13.748;2022-12-16T20:45:14;-0.40;62.30
1958;DHT22;979;51.076;13.748;2022-12-16T20:48:20;-0.50;61.90
1958;DHT22;979;51.076;13.748;2022-12-16T20:51:57;-0.50;62.20
1958;DHT22;979;51.076;13.748;2022-12-16T20:54:49;-0.30;62.40
1958;DHT22;979;51.076;13.748;2022-12-16T20:57:37;-0.40;62.20
1958;DHT22;979;51.076;13.748;2022-12-16T21:00:31;-0.30;62.30
1958;DHT22;979;51.076;13.748;2022-12-16T21:03:25;-0.40;62.10
1958;DHT22;979;51.076;13.748;2022-12-16T21:06:13;-0.20;62.10
1958;DHT22;979;51.076;13.748;2022-12-16T21:09:07;-0.40;62.10
1958;DHT22;979;51.076;13.748;2022-12-16T21:12:35;-0.50;62.10
1958;DHT22;979;51.076;13.748;2022-12-16T22:33:40;-0.50;62.10
1958;DHT22;979;51.076;13.748;2022-12-16T22:36:26;-0.50;62.10
1958;DHT22;979;51.076;13.748;2022-12-16T22:39:17;-0.50;62.30
1958;DHT22;979;51.076;13.748;2022-12-16T22:42:12;-0.50;62.30
1958;DHT22;979;51.076;13.748;2022-12-16T22:44:59;-0.50;62.50
1958;DHT22;979;51.076;13.748;2022-12-16T22:47:45;-0.30;62.60
1958;DHT22;979;51.076;13.748;2022-12-16T22:50:33;-0.20;62.50
1958;DHT22;979;51.076;13.748;2022-12-16T22:53:25;-0.30;62.40
1958;DHT22;979;51.076;13.748;2022-12-16T22:56:14;-0.40;62.10
1958;DHT22;979;51.076;13.748;2022-12-16T22:59:15;-0.10;62.50
1958;DHT22;979;51.076;13.748;2022-12-16T23:02:07;-0.30;62.30
1958;DHT22;979;51.076;13.748;2022-12-16T23:04:54;-0.30;62.10
1958;DHT22;979;51.076;13.748;2022-12-16T23:07:58;-0.20;62.30
1958;DHT22;979;51.076;13.748;2022-12-16T23:10:52;-0.20;62.30
1958;DHT22;979;51.076;13.748;2022-12-16T23:13:45;-0.30;62.00
1958;DHT22;979;51.076;13.748;2022-12-16T23:16:33;-0.30;62.20
1958;DHT22;979;51.076;13.748;2022-12-16T23:19:26;-0.30;62.20
1958;DHT22;979;51.076;13.748;2022-12-16T23:22:15;-0.10;62.50
1958;DHT22;979;51.076;13.748;2022-12-16T23:28:09;-0.30;62.30
1958;DHT22;979;51.076;13.748;2022-12-16T23:30:56;-0.40;62.20
1958;DHT22;979;51.076;13.748;2022-12-16T23:33:43;-0.40;62.30
1958;DHT22;979;51.076;13.748;2022-12-16T23:36:29;-0.40;62.40
1958;DHT22;979;51.076;13.748;2022-12-16T23:39:23;-0.20;62.70
1958;DHT22;979;51.076;13.748;2022-12-16T23:42:11;-0.30;62.50
1958;DHT22;979;51.076;13.748;2022-12-16T23:45:22;-0.30;62.50
1958;DHT22;979;51.076;13.748;2022-12-16T23:48:16;-0.30;62.50
1958;DHT22;979;51.076;13.748;2022-12-16T23:51:07;-0.20;62.50
1958;DHT22;979;51.076;13.748;2022-12-16T23:54:01;-0.20;62.50
1958;DHT22;979;51.076;13.748;2022-12-16T23:56:47;-0.20;62.60
1958;DHT22;979;51.076;13.748;2022-12-16T23:59:47;-0.20;62.60
